sensor_id;sensor_type;location;lat;lon;timestamp;P1;durP1;ratioP1;P2;durP2;ratioP2
15635;SDS011;7917;50.818;6.972;2023-11-21T00:00:42;11.68;;;6.00;;
15635;SDS011;7917;50.818;6.972;2023-11-21T00:03:09;12.45;;;6.70;;
15635;SDS011;7917;50.818;6.972;2023-11-21T00:05:36;14.43;;;7.25;;
15635;SDS011;7917;50.818;6.972;2023-11-21T00:08:04;9.63;;;7.10;;
15635;SDS011;7917;50.818;6.972;2023-11-21T00:10:30;11.68;;;6.38;;
15635;SDS011;7917;50.818;6.972;2023-11-21T00:12:58;13.20;;;6.40;;
15635;SDS011;7917;50.818;6.972;2023-11-21T00:15:25;12.95;;;6.35;;
15635;SDS011;7917;50.818;6.972;2023-11-21T00:17:52;9.48;;;6.03;;
15635;SDS011;7917;50.818;6.972;2023-11-21T00:20:20;14.13;;;7.25;;
15635;SDS011;7917;50.818;6.972;2023-11-21T00:22:47;13.40;;;7.65;;
15635;SDS011;7917;50.818;6.972;2023-11-21T00:25:14;14.45;;;8.18;;
15635;SDS011;7917;50.818;6.972;2023-11-21T00:27:42;17.23;;;8.73;;
15635;SDS011;7917;50.818;6.972;2023-11-21T00:30:09;12.48;;;8.10;;
15635;SDS011;7917;50.818;6.972;2023-11-21T00:32:37;15.30;;;9.02;;
15635;SDS011;7917;50.818;6.972;2023-11-21T00:35:06;10.88;;;8.25;;
15635;SDS011;7917;50.818;6.972;2023-11-21T00:37:33;14.55;;;10.32;;
15635;SDS011;7917;50.818;6.972;2023-11-21T00:39:59;14.93;;;9.80;;
15635;SDS011;7917;50.818;6.972;2023-11-21T00:42:30;14.40;;;9.88;;
15635;SDS011;7917;50.818;6.972;2023-11-21T00:44:58;13.73;;;9.23;;
15635;SDS011;7917;50.818;6.972;2023-11-21T00:47:25;14.15;;;9.93;;
15635;SDS011;7917;50.818;6.972;2023-11-21T00:49:51;13.70;;;9.90;;
15635;SDS011;7917;50.818;6.972;2023-11-21T00:52:19;18.02;;;10.93;;
15635;SDS011;7917;50.818;6.972;2023-11-21T00:54:46;15.60;;;10.88;;
15635;SDS011;7917;50.818;6.972;2023-11-21T00:57:13;19.35;;;14.00;;
15635;SDS011;7917;50.818;6.972;2023-11-21T00:59:40;23.08;;;15.48;;
15635;SDS011;7917;50.818;6.972;2023-11-21T01:02:06;26.17;;;16.10;;
15635;SDS011;7917;50.818;6.972;2023-11-21T01:04:35;21.80;;;15.13;;
15635;SDS011;7917;50.818;6.972;2023-11-21T01:07:03;24.77;;;15.63;;
15635;SDS011;7917;50.818;6.972;2023-11-21T01:09:31;20.50;;;13.45;;
15635;SDS011;7917;50.818;6.972;2023-11-21T01:11:58;20.27;;;13.55;;
15635;SDS011;7917;50.818;6.972;2023-11-21T01:14:25;16.45;;;12.68;;
15635;SDS011;7917;50.818;6.972;2023-11-21T01:16:52;16.08;;;12.07;;
15635;SDS011;7917;50.818;6.972;2023-11-21T01:19:19;21.23;;;13.05;;
15635;SDS011;7917;50.818;6.972;2023-11-21T01:21:46;22.30;;;14.07;;
15635;SDS011;7917;50.818;6.972;2023-11-21T01:24:13;22.00;;;13.23;;
15635;SDS011;7917;50.818;6.972;2023-11-21T01:26:40;20.55;;;13.40;;
15635;SDS011;7917;50.818;6.972;2023-11-21T01:29:07;18.23;;;12.82;;
15635;SDS011;7917;50.818;6.972;2023-11-21T01:31:34;22.73;;;13.43;;
15635;SDS011;7917;50.818;6.972;2023-11-21T01:34:00;18.65;;;12.68;;
15635;SDS011;7917;50.818;6.972;2023-11-21T01:36:29;18.25;;;12.45;;
15635;SDS011;7917;50.818;6.972;2023-11-21T01:38:57;21.10;;;14.25;;
15635;SDS011;7917;50.818;6.972;2023-11-21T01:41:24;20.85;;;13.00;;
15635;SDS011;7917;50.818;6.972;2023-11-21T01:43:52;21.73;;;13.40;;
15635;SDS011;7917;50.818;6.972;2023-11-21T01:46:20;18.77;;;11.68;;
15635;SDS011;7917;50.818;6.972;2023-11-21T01:48:47;19.65;;;13.48;;
15635;SDS011;7917;50.818;6.972;2023-11-21T01:51:14;28.38;;;17.02;;
15635;SDS011;7917;50.818;6.972;2023-11-21T01:53:42;30.80;;;17.77;;
15635;SDS011;7917;50.818;6.972;2023-11-21T01:56:10;25.30;;;17.38;;
15635;SDS011;7917;50.818;6.972;2023-11-21T01:58:37;26.70;;;18.42;;
15635;SDS011;7917;50.818;6.972;2023-11-21T02:01:05;26.17;;;17.45;;
15635;SDS011;7917;50.818;6.972;2023-11-21T02:03:32;26.23;;;17.95;;
15635;SDS011;7917;50.818;6.972;2023-11-21T02:05:58;26.38;;;17.17;;
15635;SDS011;7917;50.818;6.972;2023-11-21T02:08:25;33.05;;;17.33;;
15635;SDS011;7917;50.818;6.972;2023-11-21T02:10:52;27.63;;;17.00;;
15635;SDS011;7917;50.818;6.972;2023-11-21T02:13:19;31.65;;;16.60;;
15635;SDS011;7917;50.818;6.972;2023-11-21T02:15:45;27.08;;;17.08;;
15635;SDS011;7917;50.818;6.972;2023-11-21T02:18:16;30.10;;;17.95;;
15635;SDS011;7917;50.818;6.972;2023-11-21T02:20:43;28.25;;;18.02;;
15635;SDS011;7917;50.818;6.972;2023-11-21T02:23:12;32.65;;;19.05;;
15635;SDS011;7917;50.818;6.972;2023-11-21T02:25:38;26.02;;;17.90;;
15635;SDS011;7917;50.818;6.972;2023-11-21T02:28:05;29.65;;;19.02;;
15635;SDS011;7917;50.818;6.972;2023-11-21T02:30:32;29.05;;;18.73;;
15635;SDS011;7917;50.818;6.972;2023-11-21T02:32:58;28.08;;;19.10;;
15635;SDS011;7917;50.818;6.972;2023-11-21T02:35:26;31.92;;;20.30;;
15635;SDS011;7917;50.818;6.972;2023-11-21T02:37:52;26.67;;;19.52;;
15635;SDS011;7917;50.818;6.972;2023-11-21T02:40:20;34.45;;;20.10;;
15635;SDS011;7917;50.818;6.972;2023-11-21T02:42:46;35.80;;;22.33;;
15635;SDS011;7917;50.818;6.972;2023-11-21T02:45:13;34.03;;;23.40;;
15635;SDS011;7917;50.818;6.972;2023-11-21T02:47:41;37.65;;;22.75;;
15635;SDS011;7917;50.818;6.972;2023-11-21T02:50:09;42.45;;;24.60;;
15635;SDS011;7917;50.818;6.972;2023-11-21T02:52:35;36.97;;;23.15;;
15635;SDS011;7917;50.818;6.972;2023-11-21T02:55:02;40.90;;;23.42;;
15635;SDS011;7917;50.818;6.972;2023-11-21T02:57:30;38.50;;;23.83;;
15635;SDS011;7917;50.818;6.972;2023-11-21T02:59:57;40.00;;;23.00;;
15635;SDS011;7917;50.818;6.972;2023-11-21T03:02:25;41.00;;;22.40;;
15635;SDS011;7917;50.818;6.972;2023-11-21T03:04:51;34.95;;;22.38;;
15635;SDS011;7917;50.818;6.972;2023-11-21T03:07:18;35.50;;;23.33;;
15635;SDS011;7917;50.818;6.972;2023-11-21T03:09:45;46.10;;;24.27;;
15635;SDS011;7917;50.818;6.972;2023-11-21T03:12:11;40.25;;;23.50;;
15635;SDS011;7917;50.818;6.972;2023-11-21T03:14:38;45.42;;;26.00;;
15635;SDS011;7917;50.818;6.972;2023-11-21T03:17:05;43.15;;;24.88;;
15635;SDS011;7917;50.818;6.972;2023-11-21T03:19:31;45.97;;;24.35;;
15635;SDS011;7917;50.818;6.972;2023-11-21T03:21:58;42.25;;;24.20;;
15635;SDS011;7917;50.818;6.972;2023-11-21T03:24:24;39.78;;;23.35;;
15635;SDS011;7917;50.818;6.972;2023-11-21T03:26:52;43.10;;;24.52;;
15635;SDS011;7917;50.818;6.972;2023-11-21T03:29:18;45.55;;;24.48;;
15635;SDS011;7917;50.818;6.972;2023-11-21T03:31:45;41.03;;;25.92;;
15635;SDS011;7917;50.818;6.972;2023-11-21T03:34:14;46.20;;;27.20;;
15635;SDS011;7917;50.818;6.972;2023-11-21T03:36:48;43.53;;;25.13;;
15635;SDS011;7917;50.818;6.972;2023-11-21T03:39:15;44.92;;;23.95;;
15635;SDS011;7917;50.818;6.972;2023-11-21T03:41:42;42.75;;;24.13;;
15635;SDS011;7917;50.818;6.972;2023-11-21T03:44:09;38.63;;;23.90;;
15635;SDS011;7917;50.818;6.972;2023-11-21T03:46:35;42.40;;;23.67;;
15635;SDS011;7917;50.818;6.972;2023-11-21T03:49:03;43.33;;;22.58;;
15635;SDS011;7917;50.818;6.972;2023-11-21T03:51:29;38.10;;;21.98;;
15635;SDS011;7917;50.818;6.972;2023-11-21T03:53:56;39.05;;;22.17;;
15635;SDS011;7917;50.818;6.972;2023-11-21T03:56:23;42.22;;;23.83;;
15635;SDS011;7917;50.818;6.972;2023-11-21T03:58:49;42.13;;;21.83;;
15635;SDS011;7917;50.818;6.972;2023-11-21T04:04:39;43.53;;;24.02;;
15635;SDS011;7917;50.818;6.972;2023-11-21T04:07:05;44.53;;;22.75;;
15635;SDS011;7917;50.818;6.972;2023-11-21T04:09:32;41.42;;;21.67;;
15635;SDS011;7917;50.818;6.972;2023-11-21T04:11:59;44.65;;;23.02;;
15635;SDS011;7917;50.818;6.972;2023-11-21T04:14:25;39.33;;;22.08;;
15635;SDS011;7917;50.818;6.972;2023-11-21T04:16:52;39.42;;;21.80;;
15635;SDS011;7917;50.818;6.972;2023-11-21T04:19:19;37.97;;;19.90;;
15635;SDS011;7917;50.818;6.972;2023-11-21T04:21:46;38.88;;;21.80;;
15635;SDS011;7917;50.818;6.972;2023-11-21T04:24:12;35.42;;;21.73;;
15635;SDS011;7917;50.818;6.972;2023-11-21T04:26:39;39.00;;;19.75;;
15635;SDS011;7917;50.818;6.972;2023-11-21T04:29:05;39.13;;;20.38;;
15635;SDS011;7917;50.818;6.972;2023-11-21T04:31:32;34.60;;;19.58;;
15635;SDS011;7917;50.818;6.972;2023-11-21T04:33:59;31.55;;;18.88;;
15635;SDS011;7917;50.818;6.972;2023-11-21T04:36:25;38.08;;;20.20;;
15635;SDS011;7917;50.818;6.972;2023-11-21T04:38:52;36.08;;;20.45;;
15635;SDS011;7917;50.818;6.972;2023-11-21T04:41:18;29.77;;;19.00;;
15635;SDS011;7917;50.818;6.972;2023-11-21T04:43:45;35.38;;;20.15;;
15635;SDS011;7917;50.818;6.972;2023-11-21T04:46:12;33.05;;;20.08;;
15635;SDS011;7917;50.818;6.972;2023-11-21T04:48:38;44.30;;;21.42;;
15635;SDS011;7917;50.818;6.972;2023-11-21T04:51:05;33.70;;;21.08;;
15635;SDS011;7917;50.818;6.972;2023-11-21T04:53:32;40.30;;;22.77;;
15635;SDS011;7917;50.818;6.972;2023-11-21T04:56:00;40.97;;;21.77;;
15635;SDS011;7917;50.818;6.972;2023-11-21T04:58:26;35.85;;;21.98;;
15635;SDS011;7917;50.818;6.972;2023-11-21T05:00:53;35.85;;;22.20;;
15635;SDS011;7917;50.818;6.972;2023-11-21T05:03:20;33.97;;;20.17;;
15635;SDS011;7917;50.818;6.972;2023-11-21T05:05:48;42.08;;;21.42;;
15635;SDS011;7917;50.818;6.972;2023-11-21T05:08:15;33.70;;;20.38;;
15635;SDS011;7917;50.818;6.972;2023-11-21T05:10:42;46.35;;;21.70;;
15635;SDS011;7917;50.818;6.972;2023-11-21T05:13:09;42.40;;;21.85;;
15635;SDS011;7917;50.818;6.972;2023-11-21T05:15:35;51.10;;;23.20;;
15635;SDS011;7917;50.818;6.972;2023-11-21T05:18:03;43.08;;;21.40;;
15635;SDS011;7917;50.818;6.972;2023-11-21T05:20:30;45.25;;;23.08;;
15635;SDS011;7917;50.818;6.972;2023-11-21T05:22:58;42.65;;;23.00;;
15635;SDS011;7917;50.818;6.972;2023-11-21T05:25:25;41.75;;;20.92;;
15635;SDS011;7917;50.818;6.972;2023-11-21T05:27:51;45.03;;;22.40;;
15635;SDS011;7917;50.818;6.972;2023-11-21T05:30:20;43.75;;;21.88;;
15635;SDS011;7917;50.818;6.972;2023-11-21T05:32:47;45.40;;;22.88;;
15635;SDS011;7917;50.818;6.972;2023-11-21T05:35:14;48.35;;;25.88;;
15635;SDS011;7917;50.818;6.972;2023-11-21T05:37:42;49.30;;;26.88;;
15635;SDS011;7917;50.818;6.972;2023-11-21T05:40:09;53.78;;;25.98;;
15635;SDS011;7917;50.818;6.972;2023-11-21T05:42:36;51.58;;;27.13;;
15635;SDS011;7917;50.818;6.972;2023-11-21T05:45:04;51.25;;;25.58;;
15635;SDS011;7917;50.818;6.972;2023-11-21T05:47:36;48.83;;;24.48;;
15635;SDS011;7917;50.818;6.972;2023-11-21T05:50:04;48.75;;;24.85;;
15635;SDS011;7917;50.818;6.972;2023-11-21T05:52:34;41.70;;;22.77;;
15635;SDS011;7917;50.818;6.972;2023-11-21T05:55:01;48.22;;;22.90;;
15635;SDS011;7917;50.818;6.972;2023-11-21T05:57:29;49.05;;;22.08;;
15635;SDS011;7917;50.818;6.972;2023-11-21T05:59:56;43.42;;;22.10;;
15635;SDS011;7917;50.818;6.972;2023-11-21T06:02:22;49.90;;;23.52;;
15635;SDS011;7917;50.818;6.972;2023-11-21T06:04:49;45.78;;;23.38;;
15635;SDS011;7917;50.818;6.972;2023-11-21T06:07:16;54.20;;;23.25;;
15635;SDS011;7917;50.818;6.972;2023-11-21T06:09:43;49.65;;;23.13;;
15635;SDS011;7917;50.818;6.972;2023-11-21T06:12:10;44.00;;;21.65;;
15635;SDS011;7917;50.818;6.972;2023-11-21T06:14:36;48.08;;;21.85;;
15635;SDS011;7917;50.818;6.972;2023-11-21T06:17:03;42.53;;;20.48;;
15635;SDS011;7917;50.818;6.972;2023-11-21T06:19:29;48.95;;;21.58;;
15635;SDS011;7917;50.818;6.972;2023-11-21T06:21:56;48.70;;;22.20;;
15635;SDS011;7917;50.818;6.972;2023-11-21T06:24:23;46.70;;;23.65;;
15635;SDS011;7917;50.818;6.972;2023-11-21T06:26:49;42.92;;;21.92;;
15635;SDS011;7917;50.818;6.972;2023-11-21T06:29:16;49.35;;;22.45;;
15635;SDS011;7917;50.818;6.972;2023-11-21T06:31:43;49.03;;;23.13;;
15635;SDS011;7917;50.818;6.972;2023-11-21T06:34:11;50.67;;;23.58;;
15635;SDS011;7917;50.818;6.972;2023-11-21T06:36:38;52.97;;;21.88;;
15635;SDS011;7917;50.818;6.972;2023-11-21T06:39:06;45.00;;;21.23;;
15635;SDS011;7917;50.818;6.972;2023-11-21T06:41:33;50.83;;;23.10;;
15635;SDS011;7917;50.818;6.972;2023-11-21T06:43:59;48.83;;;22.77;;
15635;SDS011;7917;50.818;6.972;2023-11-21T06:46:26;51.65;;;24.02;;
15635;SDS011;7917;50.818;6.972;2023-11-21T06:48:53;49.58;;;22.77;;
15635;SDS011;7917;50.818;6.972;2023-11-21T06:51:20;46.83;;;21.98;;
15635;SDS011;7917;50.818;6.972;2023-11-21T06:53:47;47.83;;;22.50;;
15635;SDS011;7917;50.818;6.972;2023-11-21T06:56:17;42.58;;;22.48;;
15635;SDS011;7917;50.818;6.972;2023-11-21T06:58:45;53.08;;;24.52;;
15635;SDS011;7917;50.818;6.972;2023-11-21T07:01:11;52.65;;;23.40;;
15635;SDS011;7917;50.818;6.972;2023-11-21T07:03:38;49.25;;;24.40;;
15635;SDS011;7917;50.818;6.972;2023-11-21T07:06:06;55.08;;;25.00;;
15635;SDS011;7917;50.818;6.972;2023-11-21T07:08:33;49.55;;;22.98;;
15635;SDS011;7917;50.818;6.972;2023-11-21T07:11:00;48.30;;;23.40;;
15635;SDS011;7917;50.818;6.972;2023-11-21T07:13:28;59.38;;;23.38;;
15635;SDS011;7917;50.818;6.972;2023-11-21T07:15:55;51.25;;;23.80;;
15635;SDS011;7917;50.818;6.972;2023-11-21T07:18:22;52.97;;;25.05;;
15635;SDS011;7917;50.818;6.972;2023-11-21T07:20:49;51.33;;;23.55;;
15635;SDS011;7917;50.818;6.972;2023-11-21T07:23:16;49.08;;;23.50;;
15635;SDS011;7917;50.818;6.972;2023-11-21T07:25:42;52.78;;;25.90;;
15635;SDS011;7917;50.818;6.972;2023-11-21T07:28:09;52.85;;;24.83;;
15635;SDS011;7917;50.818;6.972;2023-11-21T07:30:36;49.60;;;23.67;;
15635;SDS011;7917;50.818;6.972;2023-11-21T07:33:03;52.60;;;23.38;;
15635;SDS011;7917;50.818;6.972;2023-11-21T07:35:30;52.55;;;24.42;;
15635;SDS011;7917;50.818;6.972;2023-11-21T07:37:57;56.83;;;24.88;;
15635;SDS011;7917;50.818;6.972;2023-11-21T07:40:24;58.97;;;23.77;;
15635;SDS011;7917;50.818;6.972;2023-11-21T07:42:51;56.72;;;23.52;;
15635;SDS011;7917;50.818;6.972;2023-11-21T07:45:19;54.83;;;23.05;;
15635;SDS011;7917;50.818;6.972;2023-11-21T07:47:47;43.42;;;22.20;;
15635;SDS011;7917;50.818;6.972;2023-11-21T07:50:14;54.20;;;22.90;;
15635;SDS011;7917;50.818;6.972;2023-11-21T07:52:41;49.25;;;22.70;;
15635;SDS011;7917;50.818;6.972;2023-11-21T07:55:07;42.78;;;23.27;;
15635;SDS011;7917;50.818;6.972;2023-11-21T07:57:34;42.97;;;20.55;;
15635;SDS011;7917;50.818;6.972;2023-11-21T08:00:01;49.63;;;22.20;;
15635;SDS011;7917;50.818;6.972;2023-11-21T08:02:31;48.05;;;24.13;;
15635;SDS011;7917;50.818;6.972;2023-11-21T08:04:58;48.72;;;22.75;;
15635;SDS011;7917;50.818;6.972;2023-11-21T08:07:25;47.53;;;20.75;;
15635;SDS011;7917;50.818;6.972;2023-11-21T08:09:52;54.15;;;22.15;;
15635;SDS011;7917;50.818;6.972;2023-11-21T08:12:19;48.97;;;21.80;;
15635;SDS011;7917;50.818;6.972;2023-11-21T08:14:46;49.50;;;22.77;;
15635;SDS011;7917;50.818;6.972;2023-11-21T08:17:13;43.45;;;22.35;;
15635;SDS011;7917;50.818;6.972;2023-11-21T08:19:40;42.75;;;22.00;;
15635;SDS011;7917;50.818;6.972;2023-11-21T08:22:07;50.40;;;22.85;;
15635;SDS011;7917;50.818;6.972;2023-11-21T08:24:34;40.75;;;20.08;;
15635;SDS011;7917;50.818;6.972;2023-11-21T08:27:01;46.13;;;22.75;;
15635;SDS011;7917;50.818;6.972;2023-11-21T08:29:29;43.05;;;21.23;;
15635;SDS011;7917;50.818;6.972;2023-11-21T08:31:57;41.95;;;21.35;;
15635;SDS011;7917;50.818;6.972;2023-11-21T08:34:24;44.15;;;23.23;;
15635;SDS011;7917;50.818;6.972;2023-11-21T08:36:50;39.80;;;20.42;;
15635;SDS011;7917;50.818;6.972;2023-11-21T08:39:18;44.70;;;22.90;;
15635;SDS011;7917;50.818;6.972;2023-11-21T08:41:44;39.58;;;19.80;;
15635;SDS011;7917;50.818;6.972;2023-11-21T08:44:12;41.95;;;19.98;;
15635;SDS011;7917;50.818;6.972;2023-11-21T08:46:41;40.67;;;20.77;;
15635;SDS011;7917;50.818;6.972;2023-11-21T08:49:10;41.38;;;20.75;;
15635;SDS011;7917;50.818;6.972;2023-11-21T08:51:37;37.72;;;20.48;;
15635;SDS011;7917;50.818;6.972;2023-11-21T08:54:04;47.30;;;19.70;;
15635;SDS011;7917;50.818;6.972;2023-11-21T08:56:33;31.92;;;18.88;;
15635;SDS011;7917;50.818;6.972;2023-11-21T08:59:01;37.65;;;20.83;;
15635;SDS011;7917;50.818;6.972;2023-11-21T09:01:27;38.28;;;19.52;;
15635;SDS011;7917;50.818;6.972;2023-11-21T09:03:56;35.22;;;18.70;;
15635;SDS011;7917;50.818;6.972;2023-11-21T09:06:23;35.60;;;18.48;;
15635;SDS011;7917;50.818;6.972;2023-11-21T09:08:49;35.33;;;19.42;;
15635;SDS011;7917;50.818;6.972;2023-11-21T09:11:16;33.78;;;19.05;;
15635;SDS011;7917;50.818;6.972;2023-11-21T09:13:44;37.40;;;20.33;;
15635;SDS011;7917;50.818;6.972;2023-11-21T09:16:12;38.15;;;20.77;;
15635;SDS011;7917;50.818;6.972;2023-11-21T09:18:38;34.10;;;19.63;;
15635;SDS011;7917;50.818;6.972;2023-11-21T09:21:05;38.03;;;20.83;;
15635;SDS011;7917;50.818;6.972;2023-11-21T09:23:32;37.67;;;19.63;;
15635;SDS011;7917;50.818;6.972;2023-11-21T09:25:59;38.38;;;18.60;;
15635;SDS011;7917;50.818;6.972;2023-11-21T09:28:26;40.97;;;21.25;;
15635;SDS011;7917;50.818;6.972;2023-11-21T09:30:53;36.58;;;20.98;;
15635;SDS011;7917;50.818;6.972;2023-11-21T09:33:20;40.97;;;21.55;;
15635;SDS011;7917;50.818;6.972;2023-11-21T09:35:50;40.00;;;23.20;;
15635;SDS011;7917;50.818;6.972;2023-11-21T09:38:17;43.58;;;22.23;;
15635;SDS011;7917;50.818;6.972;2023-11-21T09:40:44;46.53;;;25.08;;
15635;SDS011;7917;50.818;6.972;2023-11-21T09:43:14;44.05;;;24.60;;
15635;SDS011;7917;50.818;6.972;2023-11-21T09:45:45;46.25;;;25.38;;
15635;SDS011;7917;50.818;6.972;2023-11-21T09:48:13;53.28;;;25.88;;
15635;SDS011;7917;50.818;6.972;2023-11-21T09:50:41;46.83;;;25.58;;
15635;SDS011;7917;50.818;6.972;2023-11-21T09:53:11;48.38;;;25.35;;
15635;SDS011;7917;50.818;6.972;2023-11-21T09:55:42;50.60;;;26.08;;
15635;SDS011;7917;50.818;6.972;2023-11-21T09:58:10;49.65;;;25.27;;
15635;SDS011;7917;50.818;6.972;2023-11-21T10:00:38;48.03;;;25.17;;
15635;SDS011;7917;50.818;6.972;2023-11-21T10:03:06;45.92;;;25.13;;
15635;SDS011;7917;50.818;6.972;2023-11-21T10:05:34;46.38;;;24.73;;
15635;SDS011;7917;50.818;6.972;2023-11-21T10:08:01;45.40;;;25.20;;
15635;SDS011;7917;50.818;6.972;2023-11-21T10:10:31;41.22;;;23.38;;
15635;SDS011;7917;50.818;6.972;2023-11-21T10:13:00;45.42;;;24.02;;
15635;SDS011;7917;50.818;6.972;2023-11-21T10:15:29;44.40;;;22.80;;
15635;SDS011;7917;50.818;6.972;2023-11-21T10:18:00;43.15;;;22.95;;
15635;SDS011;7917;50.818;6.972;2023-11-21T10:20:29;39.63;;;22.33;;
15635;SDS011;7917;50.818;6.972;2023-11-21T10:22:57;48.25;;;24.02;;
15635;SDS011;7917;50.818;6.972;2023-11-21T10:25:24;46.70;;;25.85;;
15635;SDS011;7917;50.818;6.972;2023-11-21T10:27:55;45.53;;;23.50;;
15635;SDS011;7917;50.818;6.972;2023-11-21T10:30:27;48.25;;;24.20;;
15635;SDS011;7917;50.818;6.972;2023-11-21T10:32:59;43.08;;;23.48;;
15635;SDS011;7917;50.818;6.972;2023-11-21T10:35:38;44.13;;;24.83;;
15635;SDS011;7917;50.818;6.972;2023-11-21T10:38:06;41.78;;;22.85;;
15635;SDS011;7917;50.818;6.972;2023-11-21T10:40:37;42.65;;;22.67;;
15635;SDS011;7917;50.818;6.972;2023-11-21T10:43:05;44.20;;;22.60;;
15635;SDS011;7917;50.818;6.972;2023-11-21T10:45:34;42.50;;;22.80;;
15635;SDS011;7917;50.818;6.972;2023-11-21T10:48:04;37.25;;;20.83;;
15635;SDS011;7917;50.818;6.972;2023-11-21T10:50:33;39.30;;;22.77;;
15635;SDS011;7917;50.818;6.972;2023-11-21T10:53:01;42.63;;;21.98;;
15635;SDS011;7917;50.818;6.972;2023-11-21T10:55:30;38.45;;;19.67;;
15635;SDS011;7917;50.818;6.972;2023-11-21T10:57:58;36.40;;;19.58;;
15635;SDS011;7917;50.818;6.972;2023-11-21T11:00:27;32.00;;;19.08;;
15635;SDS011;7917;50.818;6.972;2023-11-21T11:02:54;36.63;;;19.55;;
15635;SDS011;7917;50.818;6.972;2023-11-21T11:05:22;34.17;;;19.05;;
15635;SDS011;7917;50.818;6.972;2023-11-21T11:07:51;30.52;;;15.88;;
15635;SDS011;7917;50.818;6.972;2023-11-21T11:10:25;36.03;;;18.75;;
15635;SDS011;7917;50.818;6.972;2023-11-21T11:12:53;29.55;;;17.88;;
15635;SDS011;7917;50.818;6.972;2023-11-21T11:15:20;33.90;;;19.08;;
15635;SDS011;7917;50.818;6.972;2023-11-21T11:17:48;38.75;;;18.35;;
15635;SDS011;7917;50.818;6.972;2023-11-21T11:20:16;31.80;;;17.30;;
15635;SDS011;7917;50.818;6.972;2023-11-21T11:22:48;35.00;;;18.17;;
15635;SDS011;7917;50.818;6.972;2023-11-21T11:25:27;31.02;;;16.27;;
15635;SDS011;7917;50.818;6.972;2023-11-21T11:28:04;30.20;;;16.85;;
15635;SDS011;7917;50.818;6.972;2023-11-21T11:30:39;41.08;;;18.42;;
15635;SDS011;7917;50.818;6.972;2023-11-21T11:33:21;37.65;;;18.52;;
15635;SDS011;7917;50.818;6.972;2023-11-21T11:35:56;29.52;;;17.35;;
15635;SDS011;7917;50.818;6.972;2023-11-21T11:38:30;37.85;;;19.15;;
15635;SDS011;7917;50.818;6.972;2023-11-21T11:41:01;36.17;;;19.20;;
15635;SDS011;7917;50.818;6.972;2023-11-21T11:43:30;34.08;;;18.77;;
15635;SDS011;7917;50.818;6.972;2023-11-21T11:46:05;36.42;;;18.58;;
15635;SDS011;7917;50.818;6.972;2023-11-21T11:48:34;35.85;;;18.30;;
15635;SDS011;7917;50.818;6.972;2023-11-21T11:51:05;29.48;;;17.08;;
15635;SDS011;7917;50.818;6.972;2023-11-21T11:53:38;37.20;;;18.38;;
15635;SDS011;7917;50.818;6.972;2023-11-21T11:58:57;37.00;;;17.40;;
15635;SDS011;7917;50.818;6.972;2023-11-21T12:01:25;33.60;;;17.58;;
15635;SDS011;7917;50.818;6.972;2023-11-21T12:06:55;40.45;;;18.73;;
15635;SDS011;7917;50.818;6.972;2023-11-21T12:09:25;38.75;;;18.77;;
15635;SDS011;7917;50.818;6.972;2023-11-21T12:11:53;42.03;;;16.55;;
15635;SDS011;7917;50.818;6.972;2023-11-21T12:14:23;37.35;;;17.75;;
15635;SDS011;7917;50.818;6.972;2023-11-21T12:16:49;37.85;;;17.38;;
15635;SDS011;7917;50.818;6.972;2023-11-21T12:19:17;37.80;;;17.90;;
15635;SDS011;7917;50.818;6.972;2023-11-21T12:21:47;36.53;;;17.05;;
15635;SDS011;7917;50.818;6.972;2023-11-21T12:24:19;33.00;;;17.35;;
15635;SDS011;7917;50.818;6.972;2023-11-21T12:26:46;40.35;;;18.27;;
15635;SDS011;7917;50.818;6.972;2023-11-21T12:29:13;30.13;;;15.68;;
15635;SDS011;7917;50.818;6.972;2023-11-21T12:31:42;33.75;;;16.60;;
15635;SDS011;7917;50.818;6.972;2023-11-21T12:34:11;30.33;;;15.70;;
15635;SDS011;7917;50.818;6.972;2023-11-21T12:36:38;37.10;;;15.93;;
15635;SDS011;7917;50.818;6.972;2023-11-21T12:39:05;33.67;;;15.70;;
15635;SDS011;7917;50.818;6.972;2023-11-21T12:41:34;30.88;;;14.45;;
15635;SDS011;7917;50.818;6.972;2023-11-21T12:44:01;32.03;;;14.30;;
15635;SDS011;7917;50.818;6.972;2023-11-21T12:46:28;32.03;;;15.75;;
15635;SDS011;7917;50.818;6.972;2023-11-21T12:48:56;37.00;;;15.80;;
15635;SDS011;7917;50.818;6.972;2023-11-21T12:51:23;33.72;;;15.05;;
15635;SDS011;7917;50.818;6.972;2023-11-21T12:53:50;34.13;;;15.65;;
15635;SDS011;7917;50.818;6.972;2023-11-21T12:56:18;33.08;;;15.45;;
15635;SDS011;7917;50.818;6.972;2023-11-21T12:58:48;36.40;;;14.48;;
15635;SDS011;7917;50.818;6.972;2023-11-21T13:01:16;32.47;;;16.27;;
15635;SDS011;7917;50.818;6.972;2023-11-21T13:03:45;34.42;;;16.05;;
15635;SDS011;7917;50.818;6.972;2023-11-21T13:06:16;34.80;;;16.17;;
15635;SDS011;7917;50.818;6.972;2023-11-21T13:08:44;39.28;;;16.15;;
15635;SDS011;7917;50.818;6.972;2023-11-21T13:11:11;34.03;;;16.13;;
15635;SDS011;7917;50.818;6.972;2023-11-21T13:13:40;37.60;;;17.42;;
15635;SDS011;7917;50.818;6.972;2023-11-21T13:16:08;28.88;;;15.07;;
15635;SDS011;7917;50.818;6.972;2023-11-21T13:18:36;28.65;;;13.82;;
15635;SDS011;7917;50.818;6.972;2023-11-21T13:21:05;23.10;;;13.70;;
15635;SDS011;7917;50.818;6.972;2023-11-21T13:23:38;29.17;;;15.95;;
15635;SDS011;7917;50.818;6.972;2023-11-21T13:26:06;28.90;;;14.02;;
15635;SDS011;7917;50.818;6.972;2023-11-21T13:28:34;25.83;;;13.43;;
15635;SDS011;7917;50.818;6.972;2023-11-21T13:31:02;27.08;;;13.63;;
15635;SDS011;7917;50.818;6.972;2023-11-21T13:33:35;26.42;;;13.57;;
15635;SDS011;7917;50.818;6.972;2023-11-21T13:36:03;28.50;;;14.20;;
15635;SDS011;7917;50.818;6.972;2023-11-21T13:38:36;30.88;;;14.02;;
15635;SDS011;7917;50.818;6.972;2023-11-21T13:41:07;29.27;;;14.10;;
15635;SDS011;7917;50.818;6.972;2023-11-21T13:43:35;26.15;;;13.55;;
15635;SDS011;7917;50.818;6.972;2023-11-21T13:46:02;32.55;;;13.85;;
15635;SDS011;7917;50.818;6.972;2023-11-21T13:48:38;33.03;;;15.18;;
15635;SDS011;7917;50.818;6.972;2023-11-21T13:51:08;33.25;;;16.08;;
15635;SDS011;7917;50.818;6.972;2023-11-21T13:53:43;32.35;;;16.60;;
15635;SDS011;7917;50.818;6.972;2023-11-21T13:56:12;33.55;;;18.50;;
15635;SDS011;7917;50.818;6.972;2023-11-21T13:58:43;38.15;;;20.05;;
15635;SDS011;7917;50.818;6.972;2023-11-21T14:01:12;37.42;;;18.92;;
15635;SDS011;7917;50.818;6.972;2023-11-21T14:04:02;41.38;;;20.27;;
15635;SDS011;7917;50.818;6.972;2023-11-21T14:06:42;42.88;;;20.27;;
15635;SDS011;7917;50.818;6.972;2023-11-21T14:09:15;42.35;;;19.48;;
15635;SDS011;7917;50.818;6.972;2023-11-21T14:14:31;40.78;;;21.02;;
15635;SDS011;7917;50.818;6.972;2023-11-21T14:16:59;39.92;;;20.48;;
15635;SDS011;7917;50.818;6.972;2023-11-21T14:19:31;48.90;;;22.20;;
15635;SDS011;7917;50.818;6.972;2023-11-21T14:22:01;46.47;;;19.98;;
15635;SDS011;7917;50.818;6.972;2023-11-21T14:24:29;42.97;;;22.70;;
15635;SDS011;7917;50.818;6.972;2023-11-21T14:26:57;45.90;;;22.98;;
15635;SDS011;7917;50.818;6.972;2023-11-21T14:29:24;47.30;;;22.77;;
15635;SDS011;7917;50.818;6.972;2023-11-21T14:31:52;47.03;;;22.10;;
15635;SDS011;7917;50.818;6.972;2023-11-21T14:34:22;48.97;;;22.33;;
15635;SDS011;7917;50.818;6.972;2023-11-21T14:36:49;47.65;;;21.40;;
15635;SDS011;7917;50.818;6.972;2023-11-21T14:39:15;41.97;;;20.98;;
15635;SDS011;7917;50.818;6.972;2023-11-21T14:41:49;38.22;;;21.20;;
15635;SDS011;7917;50.818;6.972;2023-11-21T14:44:17;39.22;;;19.75;;
15635;SDS011;7917;50.818;6.972;2023-11-21T14:46:44;46.20;;;21.05;;
15635;SDS011;7917;50.818;6.972;2023-11-21T14:49:12;41.60;;;19.30;;
15635;SDS011;7917;50.818;6.972;2023-11-21T14:51:44;41.28;;;19.58;;